Time;durP1;ratioP1;P1;durP2;ratioP2;P2;SDS_P1;SDS_P2;PMS_P1;PMS_P2;Temp;Humidity;BMP_temperature;BMP_pressure;BME280_temperature;BME280_humidity;BME280_pressure;Samples;Min_cycle;Max_cycle;Signal;HPM_P1;HPM_P2
2023/01/31 00:01:53;;;;;;;5.63;2.25;;;;;;;17.63;36.53;97640.31;10381781;28;20034;-26
2023/01/31 00:06:53;;;;;;;2.60;1.70;;;;;;;17.60;36.38;97632.69;10391609;28;20053;-26
2023/01/31 00:11:54;;;;;;;1.60;1.50;;;;;;;17.64;36.78;97631.91;10389042;28;20084;-26
2023/01/31 00:16:54;;;;;;;1.98;1.40;;;;;;;17.64;36.60;97626.84;10381077;28;20042;-26
2023/01/31 00:21:55;;;;;;;2.63;1.77;;;;;;;17.67;36.33;97629.44;10379906;28;20555;-27
2023/01/31 00:26:55;;;;;;;4.25;2.10;;;;;;;17.67;36.53;97616.78;10371732;28;20527;-26
2023/01/31 00:31:56;;;;;;;1.88;1.67;;;;;;;17.64;36.46;97621.78;10380562;28;20045;-25
2023/01/31 00:36:56;;;;;;;2.38;1.83;;;;;;;17.69;37.78;97605.00;10372080;28;20033;-26
2023/01/31 00:41:56;;;;;;;1.87;1.40;;;;;;;17.76;44.70;97611.88;10374546;28;20080;-25
2023/01/31 00:46:57;;;;;;;2.50;1.60;;;;;;;17.75;45.11;97603.41;10382668;28;20412;-27
2023/01/31 00:51:58;;;;;;;1.73;1.40;;;;;;;17.73;37.33;97596.63;10371405;28;20030;-26
2023/01/31 00:56:58;;;;;;;1.83;1.40;;;;;;;17.64;36.54;97599.84;10369404;28;20401;-26
2023/01/31 01:01:58;;;;;;;2.92;1.73;;;;;;;17.64;36.56;97601.50;10377741;28;20512;-26
2023/01/31 01:06:59;;;;;;;1.63;1.23;;;;;;;17.60;36.72;97593.03;10370983;28;20400;-26
2023/01/31 01:11:59;;;;;;;2.00;1.30;;;;;;;17.61;36.41;97604.00;10381061;28;20029;-26
2023/01/31 01:17:00;;;;;;;1.65;1.33;;;;;;;17.59;36.39;97593.00;10385389;28;20338;-26
2023/01/31 01:22:00;;;;;;;1.50;1.10;;;;;;;17.51;36.39;97595.38;10374435;28;20042;-25
2023/01/31 01:27:01;;;;;;;1.50;1.30;;;;;;;17.55;36.23;97598.81;10368972;28;20042;-27
2023/01/31 01:32:02;;;;;;;1.90;1.20;;;;;;;17.54;36.58;97599.66;10378370;28;20030;-26
2023/01/31 01:37:10;;;;;;;2.33;1.52;;;;;;;17.53;36.30;97606.41;10374728;28;20076;-26
2023/01/31 01:42:22;;;;;;;1.63;1.30;;;;;;;17.50;36.31;97600.44;10377545;28;20049;-26
2023/01/31 01:47:45;;;;;;;1.55;1.25;;;;;;;17.55;36.26;97596.28;10367607;28;20040;-25
2023/01/31 01:53:12;;;;;;;2.03;1.27;;;;;;;17.70;45.92;97594.03;10380089;28;20120;-26
2023/01/31 01:58:20;;;;;;;2.17;1.52;;;;;;;17.66;45.27;97584.69;10375201;28;20030;-26
2023/01/31 02:03:20;;;;;;;1.58;1.20;;;;;;;17.64;37.08;97587.19;10375861;28;20544;-25
2023/01/31 02:08:24;;;;;;;1.60;1.23;;;;;;;17.56;36.72;97608.16;10372074;28;20025;-25
2023/01/31 02:13:25;;;;;;;1.05;0.85;;;;;;;17.52;36.46;97606.38;10382959;28;20057;-26
2023/01/31 02:18:26;;;;;;;0.93;0.80;;;;;;;17.52;36.38;97603.84;10376152;28;20500;-26
2023/01/31 02:23:55;;;;;;;1.45;1.23;;;;;;;17.50;36.18;97591.16;10350401;28;20129;-26
2023/01/31 02:29:26;;;;;;;1.73;1.20;;;;;;;17.49;35.88;97606.34;10374517;28;20061;-26
2023/01/31 02:34:44;;;;;;;1.23;0.98;;;;;;;17.46;36.10;97601.19;10381842;28;20110;-26
2023/01/31 02:40:16;;;;;;;1.52;1.00;;;;;;;17.46;36.08;97589.41;10376495;28;20076;-26
2023/01/31 02:45:35;;;;;;;1.85;0.95;;;;;;;17.44;36.27;97580.06;10374957;28;20042;-26
2023/01/31 02:50:51;;;;;;;1.13;0.90;;;;;;;17.45;36.11;97586.84;10364573;28;20026;-26
2023/01/31 02:56:16;;;;;;;1.15;0.98;;;;;;;17.45;36.15;97607.97;10368201;28;20058;-26
2023/01/31 03:01:22;;;;;;;1.40;1.10;;;;;;;17.56;38.37;97610.69;10378781;28;20026;-27
2023/01/31 03:06:24;;;;;;;3.47;1.52;;;;;;;17.60;45.54;97620.91;10378324;28;20500;-25
2023/01/31 03:11:52;;;;;;;1.77;0.93;;;;;;;17.64;39.68;97621.78;10382965;28;20443;-26
2023/01/31 03:17:31;;;;;;;1.08;0.90;;;;;;;17.56;36.91;97614.06;10370408;28;20069;-26
2023/01/31 03:22:37;;;;;;;1.05;0.73;;;;;;;17.52;36.55;97616.50;10386477;28;20030;-26
2023/01/31 03:27:44;;;;;;;1.70;1.20;;;;;;;17.53;36.53;97623.28;10381076;28;20407;-26
2023/01/31 03:32:52;;;;;;;1.60;1.17;;;;;;;17.52;36.50;97619.91;10375359;28;20419;-26
2023/01/31 03:38:06;;;;;;;1.48;1.10;;;;;;;17.54;36.84;97615.72;10388333;28;20060;-26
2023/01/31 03:43:16;;;;;;;1.08;0.98;;;;;;;17.53;36.65;97628.34;10373496;28;20041;-26
2023/01/31 03:48:21;;;;;;;1.42;1.00;;;;;;;17.52;36.91;97626.63;10379642;28;20033;-26
2023/01/31 03:53:37;;;;;;;2.47;1.23;;;;;;;17.51;36.83;97624.94;10379943;28;20052;-27
2023/01/31 03:58:43;;;;;;;1.17;0.85;;;;;;;17.49;36.94;97619.84;10379469;28;20038;-26
2023/01/31 04:03:54;;;;;;;3.70;0.95;;;;;;;17.48;36.76;97605.47;10374602;28;20400;-26
2023/01/31 04:08:55;;;;;;;1.75;0.90;;;;;;;17.49;36.91;97606.34;10381771;28;20577;-26
2023/01/31 04:13:55;;;;;;;1.10;1.00;;;;;;;17.60;43.23;97605.69;10388822;28;20056;-26
2023/01/31 04:18:55;;;;;;;1.70;0.67;;;;;;;17.63;44.05;97594.75;10380775;28;20042;-26
2023/01/31 04:23:56;;;;;;;0.80;0.70;;;;;;;17.61;41.88;97597.28;10380125;28;20296;-25
2023/01/31 04:28:56;;;;;;;1.27;0.80;;;;;;;17.54;37.72;97599.66;10377824;28;20285;-25
2023/01/31 04:33:57;;;;;;;1.43;0.97;;;;;;;17.47;37.36;97618.09;10372100;28;20407;-27
2023/01/31 04:38:59;;;;;;;1.05;0.85;;;;;;;17.45;37.19;97619.75;10379514;28;20034;-26
2023/01/31 04:44:00;;;;;;;2.78;1.00;;;;;;;17.44;36.40;97633.22;10387370;28;20042;-26
2023/01/31 04:49:00;;;;;;;2.30;1.13;;;;;;;17.43;36.60;97639.13;10379273;28;20150;-26
2023/01/31 04:54:00;;;;;;;1.53;1.00;;;;;;;17.45;36.32;97637.47;10383220;28;20299;-26
2023/01/31 04:59:01;;;;;;;1.97;0.87;;;;;;;17.44;36.35;97638.28;10394665;28;20034;-26
2023/01/31 05:04:01;;;;;;;1.15;0.95;;;;;;;17.50;36.37;97640.94;10395507;28;20029;-26
2023/01/31 05:09:01;;;;;;;0.80;0.67;;;;;;;17.51;36.12;97640.97;10389516;28;20103;-26
2023/01/31 05:14:02;;;;;;;1.38;0.90;;;;;;;17.53;36.65;97644.41;10388187;28;20034;-26
2023/01/31 05:19:02;;;;;;;1.10;0.90;;;;;;;17.34;36.16;97642.28;10399003;28;20133;-26
2023/01/31 05:24:03;;;;;;;1.57;1.40;;;;;;;17.46;37.16;97641.69;10388476;28;20049;-25
2023/01/31 05:29:06;;;;;;;2.97;1.08;;;;;;;17.62;40.72;97633.56;10374895;28;20038;-26
2023/01/31 05:34:07;;;;;;;1.73;0.85;;;;;;;17.67;39.21;97627.75;10381054;28;20033;-25
2023/01/31 05:39:08;;;;;;;1.00;0.90;;;;;;;17.51;36.25;97630.00;10396149;28;20091;-26
2023/01/31 05:44:09;;;;;;;1.92;1.00;;;;;;;17.40;35.79;97636.56;10383534;28;20374;-26
2023/01/31 05:49:11;;;;;;;1.60;1.30;;;;;;;17.31;35.70;97632.13;10373706;28;20026;-26
2023/01/31 05:54:11;;;;;;;1.95;1.33;;;;;;;17.33;36.12;97615.28;10396859;28;20029;-26
2023/01/31 05:59:12;;;;;;;3.38;1.20;;;;;;;17.43;35.77;97631.53;10380843;28;20030;-26
2023/01/31 06:04:12;;;;;;;2.13;0.73;;;;;;;17.27;40.13;97629.50;10369623;28;20049;-25
2023/01/31 06:09:13;;;;;;;9.35;1.80;;;;;;;17.16;42.78;97636.03;10382991;28;20030;-26
2023/01/31 06:14:13;;;;;;;5.53;1.20;;;;;;;17.04;43.39;97646.78;10388600;28;20037;-27
2023/01/31 06:19:13;;;;;;;3.23;1.27;;;;;;;17.06;43.28;97644.28;10383166;28;20099;-25
2023/01/31 06:24:14;;;;;;;4.43;1.23;;;;;;;16.99;42.80;97653.41;10379392;28;20029;-26
2023/01/31 06:29:14;;;;;;;4.27;1.40;;;;;;;16.85;41.25;97664.06;10387987;28;20042;-26
2023/01/31 06:34:14;;;;;;;7.40;1.37;;;;;;;16.86;43.61;97668.28;10368361;28;20448;-26
2023/01/31 06:39:15;;;;;;;3.37;1.33;;;;;;;17.02;43.57;97667.78;10380492;28;20514;-27
2023/01/31 06:44:15;;;;;;;5.83;1.40;;;;;;;17.08;44.06;97678.03;10388457;28;20304;-26
2023/01/31 06:49:15;;;;;;;2.90;1.13;;;;;;;17.06;43.39;97674.63;10371993;28;20030;-25
2023/01/31 06:54:16;;;;;;;3.83;1.37;;;;;;;16.98;43.28;97679.53;10371378;28;20038;-26
2023/01/31 06:59:16;;;;;;;4.83;1.50;;;;;;;16.96;42.93;97667.66;10375534;28;20095;-25
2023/01/31 07:04:16;;;;;;;3.97;1.63;;;;;;;16.95;42.79;97671.00;10383293;28;20053;-26
2023/01/31 07:09:17;;;;;;;6.03;1.20;;;;;;;16.91;43.07;97665.03;10383158;28;20284;-26
2023/01/31 07:14:17;;;;;;;4.37;1.50;;;;;;;16.87;43.05;97673.41;10375305;28;20272;-26
2023/01/31 07:19:18;;;;;;;2.35;1.40;;;;;;;16.81;43.14;97662.31;10382947;28;20036;-26
2023/01/31 07:24:18;;;;;;;7.47;1.60;;;;;;;16.91;42.81;97674.31;10380018;28;20149;-26
2023/01/31 07:29:19;;;;;;;2.40;1.27;;;;;;;16.90;42.79;97672.59;10366751;28;20034;-25
2023/01/31 07:34:21;;;;;;;2.00;1.20;;;;;;;16.88;43.10;97664.09;10378407;28;20021;-26
2023/01/31 07:39:22;;;;;;;4.95;1.38;;;;;;;16.82;42.49;97664.84;10391355;28;20492;-26
2023/01/31 07:44:23;;;;;;;3.45;0.90;;;;;;;16.82;42.69;97674.13;10389415;28;20038;-26
2023/01/31 07:49:23;;;;;;;1.90;0.90;;;;;;;16.81;43.41;97685.06;10381859;28;20034;-26
2023/01/31 07:54:23;;;;;;;2.73;1.07;;;;;;;16.97;43.21;97684.53;10386509;28;20288;-26
2023/01/31 07:59:24;;;;;;;3.00;1.23;;;;;;;17.01;42.97;97683.78;10391582;28;20289;-26
2023/01/31 08:04:24;;;;;;;1.60;1.10;;;;;;;16.86;42.97;97681.81;10385688;28;20689;-26
2023/01/31 08:09:24;;;;;;;3.40;1.07;;;;;;;16.77;42.90;97685.78;10388916;28;20284;-25
2023/01/31 08:14:27;;;;;;;2.35;1.02;;;;;;;16.73;42.80;97685.69;10387784;28;20801;-27
2023/01/31 08:19:27;;;;;;;1.23;1.10;;;;;;;16.71;42.53;97702.50;10372442;28;20475;-27
2023/01/31 08:24:28;;;;;;;1.37;1.00;;;;;;;16.69;42.56;97707.53;10381725;28;20087;-25
2023/01/31 08:29:29;;;;;;;2.15;0.93;;;;;;;16.65;42.77;97715.88;10387652;28;20774;-26
2023/01/31 08:34:32;;;;;;;2.47;1.13;;;;;;;16.61;43.05;97709.03;10375400;28;20065;-26
2023/01/31 08:39:32;;;;;;;2.08;1.08;;;;;;;16.62;43.04;97704.84;10372199;28;20293;-26
2023/01/31 08:44:32;;;;;;;1.77;1.07;;;;;;;16.60;42.45;97702.25;10387884;28;20033;-26
2023/01/31 08:49:35;;;;;;;2.87;1.53;;;;;;;16.58;42.38;97683.69;10389245;28;20026;-25
2023/01/31 08:54:36;;;;;;;2.63;1.13;;;;;;;16.58;42.52;97682.81;10395360;28;20029;-26
2023/01/31 08:59:36;;;;;;;1.80;1.07;;;;;;;16.62;42.52;97675.34;10381535;28;20025;-26
2023/01/31 09:04:36;;;;;;;1.30;0.90;;;;;;;16.80;43.16;97673.22;10387164;28;20040;-26
2023/01/31 09:09:37;;;;;;;1.40;0.90;;;;;;;16.93;42.93;97677.72;10378923;28;20354;-26
2023/01/31 09:14:37;;;;;;;1.60;1.10;;;;;;;16.90;43.00;97670.06;10386583;28;20026;-27
2023/01/31 09:19:37;;;;;;;1.50;1.07;;;;;;;16.75;42.45;97684.91;10392700;28;20036;-25
2023/01/31 09:24:38;;;;;;;1.03;0.83;;;;;;;16.70;42.71;97686.47;10385578;28;20025;-26
2023/01/31 09:29:38;;;;;;;2.13;1.60;;;;;;;16.67;42.98;97684.72;10394862;28;20046;-25
2023/01/31 09:34:38;;;;;;;1.80;1.20;;;;;;;16.66;42.47;97682.19;10377781;28;20706;-27
2023/01/31 09:39:39;;;;;;;1.42;1.00;;;;;;;16.65;43.24;97672.91;10377869;28;20320;-25
2023/01/31 09:44:42;;;;;;;1.20;0.80;;;;;;;16.66;42.77;97677.13;10371385;28;20042;-26
2023/01/31 09:49:54;;;;;;;1.92;0.90;;;;;;;16.68;43.40;97665.38;10384728;28;20038;-26
2023/01/31 09:54:55;;;;;;;1.25;0.90;;;;;;;16.65;42.44;97660.25;10377123;28;20507;-26
2023/01/31 10:00:17;;;;;;;2.80;1.02;;;;;;;16.60;43.28;97661.81;10385546;28;20049;-26
2023/01/31 10:05:40;;;;;;;1.77;0.98;;;;;;;16.63;42.67;97655.97;10370896;28;21320;-27
2023/01/31 10:10:50;;;;;;;1.75;1.10;;;;;;;16.60;42.53;97664.34;10367882;28;20034;-26
2023/01/31 10:16:02;;;;;;;2.50;1.08;;;;;;;16.59;42.63;97661.78;10377092;28;20026;-26
2023/01/31 10:21:07;;;;;;;1.42;1.02;;;;;;;16.84;43.16;97673.31;10370611;28;20034;-25
2023/01/31 10:26:36;;;;;;;1.60;1.10;;;;;;;16.91;42.79;97680.22;10385750;28;20033;-25
2023/01/31 10:31:50;;;;;;;2.22;1.20;;;;;;;16.85;42.83;97684.28;10375963;28;20064;-26
2023/01/31 10:37:04;;;;;;;1.15;0.82;;;;;;;16.77;42.64;97681.59;10369085;28;20037;-25
2023/01/31 10:42:20;;;;;;;1.77;1.20;;;;;;;16.78;42.67;97687.50;10367436;28;20129;-25
2023/01/31 10:47:44;;;;;;;1.60;1.05;;;;;;;16.77;42.93;97666.44;10376576;28;20417;-25
2023/01/31 10:53:26;;;;;;;1.85;0.93;;;;;;;16.74;42.59;97661.28;10387158;28;20575;-25
2023/01/31 10:58:27;;;;;;;1.38;0.95;;;;;;;16.73;42.81;97646.09;10383379;28;20523;-25
2023/01/31 11:03:27;;;;;;;2.45;1.35;;;;;;;16.70;42.89;97647.72;10391782;28;20161;-27
2023/01/31 11:08:31;;;;;;;2.13;0.93;;;;;;;16.66;42.86;97631.63;10374894;28;20034;-26
2023/01/31 11:13:31;;;;;;;1.60;0.75;;;;;;;16.64;43.01;97648.44;10379404;28;20035;-26
2023/01/31 11:18:35;;;;;;;2.57;1.27;;;;;;;16.69;42.61;97653.59;10380185;28;20037;-26
2023/01/31 11:23:36;;;;;;;1.88;1.15;;;;;;;16.75;42.82;97649.50;10386678;28;20026;-26
2023/01/31 11:28:40;;;;;;;1.55;0.85;;;;;;;16.79;42.61;97638.63;10374120;28;20053;-25
2023/01/31 11:34:20;;;;;;;2.05;0.90;;;;;;;16.89;42.22;97632.97;10390885;28;20042;-25
2023/01/31 11:39:33;;;;;;;1.63;0.88;;;;;;;16.93;42.11;97649.91;10384502;28;20045;-26
2023/01/31 11:44:33;;;;;;;2.10;1.02;;;;;;;16.93;41.95;97649.91;10392590;28;20041;-26
2023/01/31 11:49:39;;;;;;;2.97;1.40;;;;;;;16.95;41.65;97650.78;10402649;28;20038;-27
2023/01/31 11:54:45;;;;;;;1.92;0.95;;;;;;;16.94;42.18;97646.53;10394545;28;20534;-26
2023/01/31 11:59:49;;;;;;;2.58;1.05;;;;;;;16.94;42.06;97631.38;10383745;28;20148;-26
2023/01/31 12:04:49;;;;;;;1.85;0.90;;;;;;;16.93;41.74;97635.59;10381548;28;20042;-27
2023/01/31 12:09:50;;;;;;;2.55;1.00;;;;;;;16.97;41.78;97632.28;10380955;28;20034;-27
2023/01/31 12:14:54;;;;;;;1.33;1.08;;;;;;;17.00;41.37;97621.38;10394105;28;20037;-26
2023/01/31 12:20:11;;;;;;;2.83;1.10;;;;;;;16.96;41.68;97595.16;10406456;28;20039;-27
2023/01/31 12:25:27;;;;;;;2.65;0.95;;;;;;;16.95;41.93;97596.00;10380806;28;20106;-25
2023/01/31 12:30:44;;;;;;;2.08;0.82;;;;;;;16.94;42.30;97575.72;10388520;28;20037;-26
2023/01/31 12:36:01;;;;;;;1.35;0.80;;;;;;;16.90;42.48;97564.69;10385305;28;20029;-26
2023/01/31 12:41:07;;;;;;;;;;;;;;;16.90;42.60;97556.25;10394640;28;20064;-26
2023/01/31 12:46:55;;;;;;;2.28;0.80;;;;;;;16.85;42.99;97555.31;10410208;28;19917;-27
2023/01/31 12:52:17;;;;;;;3.47;1.35;;;;;;;16.94;42.33;97552.94;10382371;28;20440;-27
2023/01/31 12:57:30;;;;;;;3.15;1.20;;;;;;;16.95;43.41;97574.88;10399426;28;20120;-26
2023/01/31 13:02:51;;;;;;;2.55;1.00;;;;;;;16.94;42.14;97583.31;10406412;28;20091;-27
2023/01/31 13:08:00;;;;;;;2.75;1.00;;;;;;;16.87;41.82;97572.22;10409937;28;20573;-26
2023/01/31 13:13:03;;;;;;;2.25;0.95;;;;;;;16.94;41.86;97561.41;10395297;28;20250;-26
2023/01/31 13:18:05;;;;;;;5.22;1.58;;;;;;;16.71;39.03;97528.88;10400232;28;20044;-26
2023/01/31 13:23:14;;;;;;;6.60;2.25;;;;;;;16.61;40.99;97531.22;10400659;28;20055;-26
2023/01/31 13:28:21;;;;;;;4.93;1.35;;;;;;;16.74;42.91;97549.19;10400949;28;20048;-26
2023/01/31 13:33:22;;;;;;;3.55;1.45;;;;;;;16.78;41.52;97566.13;10394813;28;20017;-26
2023/01/31 13:38:26;;;;;;;4.63;1.23;;;;;;;16.79;41.28;97558.56;10387446;28;20025;-26
2023/01/31 13:43:27;;;;;;;4.05;1.38;;;;;;;16.84;43.29;97546.00;10387900;28;20062;-26
2023/01/31 13:48:48;;;;;;;2.45;1.10;;;;;;;16.82;42.50;97533.34;10389603;28;20540;-26
2023/01/31 13:53:59;;;;;;;3.22;1.20;;;;;;;16.70;41.17;97536.47;10380054;28;20492;-26
2023/01/31 13:59:06;;;;;;;4.10;1.25;;;;;;;16.89;40.41;97539.38;10384380;28;20547;-26
2023/01/31 14:04:16;;;;;;;3.30;1.40;;;;;;;17.02;41.11;97523.59;10383138;28;20087;-26
2023/01/31 14:09:37;;;;;;;2.08;1.45;;;;;;;16.66;38.33;97504.34;10383351;28;20041;-26
2023/01/31 14:14:44;;;;;;;6.05;1.40;;;;;;;17.00;38.56;97503.31;10396580;28;20517;-28
2023/01/31 14:19:50;;;;;;;;;;;;;;;17.01;39.12;97512.66;10396547;28;20442;-26
2023/01/31 14:24:55;;;;;;;3.85;1.23;;;;;;;17.04;38.28;97507.63;10397513;28;19920;-26
2023/01/31 14:29:59;;;;;;;5.88;2.47;;;;;;;16.86;38.07;97503.91;10397030;28;20033;-25
2023/01/31 14:35:12;;;;;;;5.65;1.45;;;;;;;16.92;38.44;97499.78;10408271;28;20514;-26
2023/01/31 14:40:31;;;;;;;6.05;1.45;;;;;;;16.98;37.73;97509.19;10398396;28;20115;-27
2023/01/31 14:46:04;;;;;;;4.43;1.40;;;;;;;16.99;38.36;97500.78;10375099;28;20045;-26
2023/01/31 14:51:21;;;;;;;3.92;1.30;;;;;;;17.01;38.07;97501.66;10390541;28;20499;-26
2023/01/31 14:56:34;;;;;;;;;;;;;;;17.04;37.91;97499.16;10385629;28;20041;-27
2023/01/31 15:01:37;;;;;;;2.72;1.30;;;;;;;17.01;38.08;97478.88;10385096;28;19927;-26
2023/01/31 15:06:42;;;;;;;1.27;0.82;;;;;;;17.06;38.66;97498.38;10392589;28;20038;-26
2023/01/31 15:11:45;;;;;;;4.38;1.05;;;;;;;17.07;38.11;97489.13;10406982;28;20057;-27
2023/01/31 15:16:53;;;;;;;2.35;1.10;;;;;;;17.08;38.87;97495.88;10396688;28;20068;-27
2023/01/31 15:21:58;;;;;;;2.47;1.58;;;;;;;17.18;40.35;97497.75;10383537;28;20512;-27
2023/01/31 15:27:01;;;;;;;3.15;0.80;;;;;;;17.24;40.88;97498.69;10382333;28;20064;-26
2023/01/31 15:32:19;;;;;;;6.68;2.08;;;;;;;17.24;39.46;97501.22;10394024;28;20108;-27
2023/01/31 15:37:24;;;;;;;2.97;0.90;;;;;;;17.20;38.91;97491.03;10420118;28;20037;-27
2023/01/31 15:42:27;;;;;;;2.15;1.20;;;;;;;17.16;39.09;97474.09;10419444;28;20044;-25
2023/01/31 15:47:27;;;;;;;1.55;0.93;;;;;;;17.13;37.13;97479.09;10399057;28;20512;-26
2023/01/31 15:52:33;;;;;;;8.17;1.53;;;;;;;17.17;38.01;97478.34;10403721;28;20038;-26
2023/01/31 15:57:37;;;;;;;3.13;1.20;;;;;;;17.16;37.97;97480.00;10389144;28;20117;-26
2023/01/31 16:02:38;;;;;;;2.05;1.02;;;;;;;17.17;38.61;97463.16;10380990;28;20115;-27
2023/01/31 16:07:38;;;;;;;3.72;0.80;;;;;;;17.14;38.40;97447.94;10390672;28;20104;-26
2023/01/31 16:12:43;;;;;;;3.90;1.13;;;;;;;17.08;37.59;97456.25;10376014;28;20030;-26
2023/01/31 16:17:44;;;;;;;4.00;0.85;;;;;;;17.14;37.12;97447.94;10400554;28;20288;-26
2023/01/31 16:22:55;;;;;;;2.55;1.00;;;;;;;17.19;37.18;97467.41;10395061;28;20484;-26
2023/01/31 16:28:01;;;;;;;4.50;1.02;;;;;;;17.16;37.53;97476.63;10391889;28;20122;-27
2023/01/31 16:33:01;;;;;;;3.50;1.03;;;;;;;17.17;37.03;97480.88;10393361;28;20032;-26
2023/01/31 16:38:06;;;;;;;6.63;1.15;;;;;;;17.27;41.25;97502.97;10401240;28;20048;-26
2023/01/31 16:43:16;;;;;;;3.10;1.20;;;;;;;17.32;41.13;97506.44;10391610;28;20492;-26
2023/01/31 16:48:23;;;;;;;3.15;0.98;;;;;;;17.26;39.18;97516.44;10394278;28;20487;-26
2023/01/31 16:53:32;;;;;;;3.40;1.30;;;;;;;17.25;38.65;97520.63;10403708;28;20033;-28
2023/01/31 16:58:53;;;;;;;1.33;0.95;;;;;;;17.27;37.23;97538.41;10391402;28;20511;-27
2023/01/31 17:04:03;;;;;;;2.88;1.10;;;;;;;17.24;38.29;97538.34;10383682;28;20045;-26
2023/01/31 17:09:06;;;;;;;5.72;1.30;;;;;;;17.20;38.55;97561.88;10369711;28;20500;-26
2023/01/31 17:14:07;;;;;;;1.65;1.00;;;;;;;17.19;38.74;97583.81;10403790;28;20520;-26
2023/01/31 17:19:10;;;;;;;1.90;1.10;;;;;;;17.24;39.15;97588.97;10389647;28;20065;-27
2023/01/31 17:24:21;;;;;;;3.90;1.00;;;;;;;17.25;38.56;97580.53;10395841;28;20029;-26
2023/01/31 17:29:24;;;;;;;1.80;1.27;;;;;;;17.21;37.23;97573.69;10394388;28;20041;-27
2023/01/31 17:34:25;;;;;;;2.53;1.02;;;;;;;17.24;36.96;97573.78;10401135;28;20030;-26
2023/01/31 17:39:25;;;;;;;1.37;1.20;;;;;;;17.23;36.79;97567.00;10394841;28;20041;-26
2023/01/31 17:44:25;;;;;;;2.93;1.33;;;;;;;17.25;36.86;97575.47;10382084;28;20053;-27
2023/01/31 17:49:26;;;;;;;6.17;1.50;;;;;;;17.35;37.30;97563.03;10400992;28;20468;-26
2023/01/31 17:54:27;;;;;;;4.97;1.30;;;;;;;17.36;44.44;97548.72;10378723;28;20034;-27
2023/01/31 17:59:27;;;;;;;5.05;1.15;;;;;;;17.43;42.97;97555.59;10392587;28;20448;-26
2023/01/31 18:04:28;;;;;;;4.10;1.23;;;;;;;17.35;39.26;97557.97;10407776;28;20499;-26
2023/01/31 18:09:28;;;;;;;2.90;1.50;;;;;;;17.36;41.42;97564.75;10403648;28;20035;-26
2023/01/31 18:14:28;;;;;;;1.50;1.00;;;;;;;17.37;42.51;97570.66;10378058;28;20033;-26
2023/01/31 18:19:29;;;;;;;2.80;1.57;;;;;;;17.34;40.68;97580.72;10378251;28;20092;-26
2023/01/31 18:24:30;;;;;;;4.30;1.73;;;;;;;17.34;40.04;97580.72;10390234;28;20829;-27
2023/01/31 18:29:30;;;;;;;3.63;1.90;;;;;;;17.37;39.86;97585.84;10399500;28;20025;-26
2023/01/31 18:34:31;;;;;;;4.10;2.43;;;;;;;17.35;40.04;97588.34;10396827;28;20034;-27
2023/01/31 18:39:32;;;;;;;4.28;1.75;;;;;;;17.32;39.72;97587.44;10390314;28;20042;-28
2023/01/31 18:44:33;;;;;;;6.57;1.83;;;;;;;17.32;40.54;97588.25;10373410;28;20124;-27
2023/01/31 18:49:33;;;;;;;4.07;1.90;;;;;;;17.31;39.46;97576.44;10375783;28;20028;-26
2023/01/31 18:54:36;;;;;;;3.93;2.10;;;;;;;17.33;40.03;97564.66;10396727;28;20068;-26
2023/01/31 18:59:36;;;;;;;2.85;2.00;;;;;;;17.35;40.49;97567.22;10399572;28;20131;-26
2023/01/31 19:04:37;;;;;;;3.83;1.97;;;;;;;17.31;41.52;97573.06;10392935;28;20034;-26
2023/01/31 19:09:37;;;;;;;3.70;1.98;;;;;;;17.40;40.57;97585.91;10394516;28;20032;-27
2023/01/31 19:14:37;;;;;;;4.10;2.40;;;;;;;17.40;42.86;97584.22;10392113;28;20038;-26
2023/01/31 19:19:38;;;;;;;2.80;1.87;;;;;;;17.36;39.83;97581.63;10395397;28;20825;-25
2023/01/31 19:24:38;;;;;;;4.10;2.30;;;;;;;17.34;39.48;97586.59;10394055;28;20107;-26
2023/01/31 19:29:40;;;;;;;5.97;2.27;;;;;;;17.36;37.51;97574.03;10388736;28;20104;-25
2023/01/31 19:34:40;;;;;;;2.30;1.60;;;;;;;17.38;37.26;97552.97;10390920;28;20048;-26
2023/01/31 19:39:41;;;;;;;4.63;2.03;;;;;;;17.39;37.31;97551.28;10389395;28;20381;-26
2023/01/31 19:44:41;;;;;;;3.00;2.10;;;;;;;17.37;37.09;97552.94;10398551;28;20076;-26
2023/01/31 19:49:41;;;;;;;2.77;2.00;;;;;;;17.30;37.27;97554.50;10393992;28;20484;-26
2023/01/31 19:54:42;;;;;;;2.67;1.93;;;;;;;17.33;37.11;97543.56;10388322;28;20306;-26
2023/01/31 19:59:43;;;;;;;3.47;1.92;;;;;;;17.29;36.94;97537.59;10388919;28;20046;-26
2023/01/31 20:04:44;;;;;;;3.00;2.03;;;;;;;17.31;37.16;97547.75;10381748;28;20124;-26
2023/01/31 20:09:44;;;;;;;7.25;2.47;;;;;;;17.29;36.92;97551.91;10374005;28;20030;-26
2023/01/31 20:14:44;;;;;;;2.73;1.90;;;;;;;17.24;36.93;97563.66;10373412;28;20044;-25
2023/01/31 20:19:45;;;;;;;3.00;2.10;;;;;;;17.28;37.22;97560.34;10383447;28;20038;-25
2023/01/31 20:24:45;;;;;;;2.93;1.63;;;;;;;17.43;39.09;97560.66;10372777;28;20133;-26
2023/01/31 20:29:45;;;;;;;3.10;2.03;;;;;;;17.48;39.04;97552.31;10379310;28;20500;-25
2023/01/31 20:34:46;;;;;;;3.60;1.70;;;;;;;17.41;37.12;97547.13;10380313;28;20054;-26
2023/01/31 20:39:46;;;;;;;2.67;1.60;;;;;;;17.36;37.18;97543.66;10384277;28;20296;-25
2023/01/31 20:44:46;;;;;;;2.93;1.67;;;;;;;17.10;37.13;97529.66;10380181;28;20350;-26
2023/01/31 20:49:47;;;;;;;2.27;1.53;;;;;;;17.02;37.05;97539.66;10395238;28;20040;-26
2023/01/31 20:54:47;;;;;;;2.30;1.93;;;;;;;16.99;36.89;97526.91;10401920;28;20029;-25
2023/01/31 20:59:47;;;;;;;2.70;2.10;;;;;;;16.94;36.87;97532.72;10393034;28;20291;-26
2023/01/31 21:04:48;;;;;;;2.77;2.00;;;;;;;16.96;36.96;97533.59;10388675;28;20049;-26
2023/01/31 21:09:48;;;;;;;2.50;1.80;;;;;;;16.91;36.57;97532.66;10405056;28;20662;-27
2023/01/31 21:14:51;;;;;;;2.67;1.67;;;;;;;16.91;36.56;97538.56;10399993;28;20408;-26
2023/01/31 21:19:51;;;;;;;2.00;1.80;;;;;;;16.91;36.24;97522.56;10410689;28;20043;-26
2023/01/31 21:24:51;;;;;;;2.70;1.60;;;;;;;16.72;37.01;97534.81;10409152;28;20124;-27
2023/01/31 21:29:52;;;;;;;3.00;1.90;;;;;;;16.87;37.19;97538.47;10400345;28;20531;-25
2023/01/31 21:34:52;;;;;;;1.67;1.43;;;;;;;17.06;36.96;97535.50;10397126;28;20034;-26
2023/01/31 21:39:52;;;;;;;2.70;1.50;;;;;;;17.21;43.63;97538.28;10395949;28;20021;-26
2023/01/31 21:44:53;;;;;;;3.93;1.63;;;;;;;17.26;44.70;97532.47;10397912;28;20395;-26
2023/01/31 21:49:53;;;;;;;2.20;1.60;;;;;;;17.21;37.96;97523.09;10397674;28;20287;-25
2023/01/31 21:54:53;;;;;;;2.63;1.60;;;;;;;17.16;37.25;97527.25;10402917;28;20025;-26
2023/01/31 21:59:54;;;;;;;1.60;1.20;;;;;;;17.13;37.04;97520.44;10394620;28;20124;-27
2023/01/31 22:04:54;;;;;;;1.73;1.40;;;;;;;17.11;37.16;97506.03;10375520;28;20120;-25
2023/01/31 22:09:54;;;;;;;1.87;1.33;;;;;;;17.10;37.03;97504.34;10368371;28;20061;-26
2023/01/31 22:14:55;;;;;;;1.47;1.17;;;;;;;17.08;36.85;97506.84;10368952;28;20034;-26
2023/01/31 22:19:55;;;;;;;2.37;1.30;;;;;;;17.09;37.14;97507.72;10367692;28;20030;-26
2023/01/31 22:24:55;;;;;;;1.47;1.23;;;;;;;17.11;36.60;97501.00;10376962;28;20407;-25
2023/01/31 22:29:57;;;;;;;1.38;1.00;;;;;;;17.08;37.24;97498.41;10368100;28;20045;-26
2023/01/31 22:34:57;;;;;;;1.20;0.90;;;;;;;17.09;37.00;97492.53;10375941;28;20037;-26
2023/01/31 22:39:57;;;;;;;1.67;1.33;;;;;;;17.08;37.14;97470.59;10379452;28;20044;-26
2023/01/31 22:44:58;;;;;;;1.60;1.10;;;;;;;17.08;37.09;97460.47;10381177;28;20022;-26
2023/01/31 22:49:58;;;;;;;1.00;0.90;;;;;;;17.09;36.95;97452.88;10367404;28;20484;-26
2023/01/31 22:54:58;;;;;;;2.40;1.20;;;;;;;17.23;42.63;97438.78;10367848;28;20049;-25
2023/01/31 22:59:59;;;;;;;1.27;0.93;;;;;;;17.28;45.24;97438.88;10373964;28;20033;-26
2023/01/31 23:04:59;;;;;;;1.20;1.00;;;;;;;17.26;38.82;97440.53;10380501;28;20033;-25
2023/01/31 23:10:02;;;;;;;1.50;1.27;;;;;;;17.20;37.75;97455.59;10367227;28;20053;-26
2023/01/31 23:15:02;;;;;;;1.52;1.42;;;;;;;17.10;37.45;97448.69;10391208;28;20481;-26
2023/01/31 23:20:12;;;;;;;1.38;1.10;;;;;;;17.17;37.32;97460.63;10377259;28;20022;-26
2023/01/31 23:25:13;;;;;;;1.58;1.00;;;;;;;17.15;37.14;97462.28;10388673;28;20099;-26
2023/01/31 23:30:16;;;;;;;1.13;1.02;;;;;;;17.17;37.29;97466.50;10385362;28;20554;-27
2023/01/31 23:35:16;;;;;;;4.50;1.10;;;;;;;17.18;37.18;97464.84;10374230;28;20124;-26
2023/01/31 23:40:17;;;;;;;1.15;0.70;;;;;;;17.17;37.06;97456.41;10376250;28;20080;-26